createdAt,value
2023-05-14T00:00:48.569Z,101083.47
2023-05-14T00:03:16.450Z,101084.56
2023-05-14T00:05:44.253Z,101078.81
2023-05-14T00:08:13.406Z,101085.34
2023-05-14T00:10:40.986Z,101088.34
2023-05-14T00:13:08.732Z,101082.44
2023-05-14T00:15:36.556Z,101076.50
2023-05-14T00:18:04.650Z,101067.78
2023-05-14T00:20:32.378Z,101066.69
2023-05-14T00:23:00.150Z,101072.44
2023-05-14T00:25:29.661Z,101070.47
2023-05-14T00:27:57.445Z,101070.06
2023-05-14T00:30:25.387Z,101070.50
2023-05-14T00:32:53.351Z,101063.41
2023-05-14T00:35:21.545Z,101061.63
2023-05-14T00:41:38.374Z,101064.34
2023-05-14T00:44:06.359Z,101055.84
2023-05-14T00:46:34.078Z,101054.22
2023-05-14T00:49:01.861Z,101052.63
2023-05-14T00:51:29.617Z,101048.47
2023-05-14T00:53:57.657Z,101052.03
2023-05-14T00:56:26.678Z,101046.13
2023-05-14T00:58:55.790Z,101045.50
2023-05-14T01:01:23.454Z,101054.50
2023-05-14T01:03:53.402Z,101041.88
2023-05-14T01:06:27.582Z,101046.69
2023-05-14T01:09:02.800Z,101049.00
2023-05-14T01:11:31.583Z,101048.69
2023-05-14T01:14:05.826Z,101036.25
2023-05-14T01:16:35.171Z,101041.00
2023-05-14T01:19:03.919Z,101038.88
2023-05-14T01:21:38.296Z,101031.44
2023-05-14T01:24:06.598Z,101029.03
2023-05-14T01:26:34.781Z,101036.94
2023-05-14T01:29:05.323Z,101034.34
2023-05-14T01:31:34.177Z,101028.38
2023-05-14T01:34:02.192Z,101030.06
2023-05-14T01:36:30.100Z,101032.66
2023-05-14T01:38:59.491Z,101036.16
2023-05-14T01:41:27.656Z,101029.44
2023-05-14T01:43:55.730Z,101020.84
2023-05-14T01:46:25.069Z,101026.88
2023-05-14T01:48:52.784Z,101029.47
2023-05-14T01:51:20.697Z,101033.84
2023-05-14T01:53:48.453Z,101028.53
2023-05-14T01:56:17.572Z,101035.25
2023-05-14T01:58:45.416Z,101030.78
2023-05-14T02:01:13.118Z,101025.47
2023-05-14T02:03:40.929Z,101025.50
2023-05-14T02:06:08.812Z,101024.84
2023-05-14T02:08:36.524Z,101019.03
2023-05-14T02:11:04.224Z,101027.09
2023-05-14T02:13:33.330Z,101027.50
2023-05-14T02:16:01.075Z,101019.25
2023-05-14T02:18:28.926Z,101025.59
2023-05-14T02:20:59.643Z,101024.91
2023-05-14T02:23:37.852Z,101032.84
2023-05-14T02:26:09.559Z,101015.69
2023-05-14T02:28:38.716Z,101018.28
2023-05-14T02:31:06.335Z,101029.44
2023-05-14T02:33:34.224Z,101023.34
2023-05-14T02:36:02.000Z,101030.34
2023-05-14T02:38:29.797Z,101019.13
2023-05-14T02:40:57.792Z,101024.25
2023-05-14T02:43:28.426Z,101026.16
2023-05-14T02:45:59.908Z,101024.03
2023-05-14T02:48:27.644Z,101021.63
2023-05-14T02:50:55.429Z,101025.97
2023-05-14T02:53:23.182Z,101020.88
2023-05-14T02:55:53.900Z,101023.47
2023-05-14T02:58:25.793Z,101020.88
2023-05-14T03:00:57.587Z,101013.28
2023-05-14T03:03:25.982Z,101011.47
2023-05-14T03:05:54.084Z,101017.75
2023-05-14T03:08:21.834Z,101018.00
2023-05-14T03:10:49.634Z,101026.91
2023-05-14T03:13:19.987Z,101018.44
2023-05-14T03:15:48.532Z,101024.66
2023-05-14T03:18:17.635Z,101036.16
2023-05-14T03:20:45.397Z,101025.28
2023-05-14T03:23:13.565Z,101030.63
2023-05-14T03:25:41.489Z,101023.94
2023-05-14T03:28:09.760Z,101023.06
2023-05-14T03:30:37.731Z,101019.56
2023-05-14T03:33:05.537Z,101017.75
2023-05-14T03:35:34.657Z,100996.91
2023-05-14T03:38:02.436Z,101007.13
2023-05-14T03:40:30.182Z,101011.41
2023-05-14T03:42:57.932Z,101005.25
2023-05-14T03:45:26.932Z,101006.16
2023-05-14T03:47:54.719Z,101002.53
2023-05-14T03:50:25.524Z,101007.50
2023-05-14T03:52:55.030Z,101001.19
2023-05-14T03:55:22.963Z,100997.56
2023-05-14T03:57:50.817Z,101007.72
2023-05-14T04:00:18.871Z,101004.00
2023-05-14T04:02:46.689Z,100996.00
2023-05-14T04:05:14.464Z,100988.03
2023-05-14T04:07:42.218Z,100989.47
2023-05-14T04:10:11.870Z,100981.41
2023-05-14T04:12:39.612Z,100986.28
2023-05-14T04:15:11.515Z,100981.75
2023-05-14T04:17:39.323Z,100984.22
2023-05-14T04:20:08.640Z,100983.09
2023-05-14T04:22:36.362Z,100976.63
2023-05-14T04:25:04.109Z,100974.81
2023-05-14T04:27:34.118Z,100981.56
2023-05-14T04:30:01.850Z,100977.03
2023-05-14T04:32:30.233Z,100976.84
2023-05-14T04:34:59.301Z,100975.75
2023-05-14T04:37:27.198Z,100976.38
2023-05-14T04:39:54.934Z,100974.50
2023-05-14T04:42:22.713Z,100975.19
2023-05-14T04:44:52.249Z,100973.19
2023-05-14T04:47:21.074Z,100980.00
2023-05-14T04:49:48.920Z,100979.22
2023-05-14T04:52:16.645Z,100974.94
2023-05-14T04:54:44.427Z,100975.81
2023-05-14T04:57:12.200Z,100967.91
2023-05-14T04:59:40.015Z,100977.63
2023-05-14T05:02:09.219Z,100978.28
2023-05-14T05:04:36.770Z,100975.59
2023-05-14T05:07:05.737Z,100970.78
2023-05-14T05:09:33.502Z,100982.47
2023-05-14T05:12:02.037Z,100970.03
2023-05-14T05:14:29.788Z,100972.44
2023-05-14T05:17:02.260Z,100968.81
2023-05-14T05:19:42.237Z,100975.44
2023-05-14T05:22:10.615Z,100973.59
2023-05-14T05:24:38.352Z,100977.13
2023-05-14T05:27:06.688Z,100976.34
2023-05-14T05:29:34.468Z,100967.66
2023-05-14T05:32:02.317Z,100972.69
2023-05-14T05:34:31.689Z,100971.50
2023-05-14T05:36:59.461Z,100980.63
2023-05-14T05:39:27.222Z,100979.59
2023-05-14T05:41:56.857Z,100978.56
2023-05-14T05:44:24.985Z,100976.47
2023-05-14T05:46:52.790Z,100973.91
2023-05-14T05:49:20.872Z,100968.41
2023-05-14T05:51:50.121Z,100971.28
2023-05-14T05:54:24.221Z,100964.00
2023-05-14T05:56:51.984Z,100978.59
2023-05-14T05:59:19.678Z,100972.97
2023-05-14T06:01:48.115Z,100968.81
2023-05-14T06:04:15.865Z,100993.22
2023-05-14T06:06:43.667Z,100987.13
2023-05-14T06:11:41.037Z,100977.72
2023-05-14T06:14:08.781Z,100972.25
2023-05-14T06:16:36.654Z,100980.47
2023-05-14T06:19:04.519Z,100986.31
2023-05-14T06:21:32.302Z,100977.63
2023-05-14T06:24:00.049Z,100981.94
2023-05-14T06:26:29.120Z,100981.28
2023-05-14T06:28:56.707Z,100979.75
2023-05-14T06:31:24.457Z,100978.06
2023-05-14T06:33:52.236Z,100982.84
2023-05-14T06:36:19.976Z,100985.84
2023-05-14T06:38:47.714Z,100987.31
2023-05-14T06:41:15.551Z,100984.63
2023-05-14T06:43:44.695Z,100989.75
2023-05-14T06:46:12.432Z,100986.69
2023-05-14T06:48:40.415Z,100979.25
2023-05-14T06:51:08.209Z,100975.69
2023-05-14T06:53:35.953Z,100975.75
2023-05-14T06:56:03.758Z,100978.59
2023-05-14T06:58:31.522Z,100976.38
2023-05-14T07:01:01.309Z,100976.84
2023-05-14T07:03:29.160Z,100977.63
2023-05-14T07:05:57.062Z,100970.53
2023-05-14T07:08:24.863Z,100968.94
2023-05-14T07:10:52.636Z,100974.13
2023-05-14T07:13:20.516Z,100965.72
2023-05-14T07:15:48.297Z,100965.00
2023-05-14T07:18:17.453Z,100974.13
2023-05-14T07:20:45.302Z,100967.69
2023-05-14T07:23:13.024Z,100969.06
2023-05-14T07:25:40.832Z,100963.28
2023-05-14T07:28:08.569Z,100962.25
2023-05-14T07:30:36.345Z,100968.63
2023-05-14T07:33:04.129Z,100961.03
2023-05-14T07:35:33.509Z,100960.22
2023-05-14T07:38:01.320Z,100953.56
2023-05-14T07:40:29.087Z,100947.94
2023-05-14T07:42:56.950Z,100955.84
2023-05-14T07:45:24.718Z,100952.25
2023-05-14T07:47:52.576Z,100946.25
2023-05-14T07:50:20.565Z,100941.56
2023-05-14T07:52:49.739Z,100932.00
2023-05-14T07:55:17.542Z,100931.72
2023-05-14T07:57:45.714Z,100929.66
2023-05-14T08:00:14.960Z,100927.94
2023-05-14T08:02:42.861Z,100928.25
2023-05-14T08:05:10.860Z,100924.94
2023-05-14T08:07:38.656Z,100927.44
2023-05-14T08:10:09.300Z,100932.59
2023-05-14T08:12:37.102Z,100924.94
2023-05-14T08:15:05.647Z,100932.59
2023-05-14T08:17:33.425Z,100926.25
2023-05-14T08:20:01.450Z,100927.22
2023-05-14T08:22:29.241Z,100925.44
2023-05-14T08:24:56.755Z,100915.94
2023-05-14T08:27:26.400Z,100927.03
2023-05-14T08:29:54.152Z,100927.50
2023-05-14T08:32:23.937Z,100924.47
2023-05-14T08:34:52.906Z,100926.38
2023-05-14T08:37:20.713Z,100922.53
2023-05-14T08:39:48.564Z,100920.41
2023-05-14T08:42:16.890Z,100921.53
2023-05-14T08:44:49.443Z,100919.59
2023-05-14T08:47:19.541Z,100916.31
2023-05-14T08:49:49.588Z,100915.09
2023-05-14T08:52:17.518Z,100912.22
2023-05-14T08:54:48.217Z,100907.88
2023-05-14T08:57:16.413Z,100908.75
2023-05-14T08:59:44.014Z,100910.34
2023-05-14T09:02:17.329Z,100905.94
2023-05-14T09:04:45.128Z,100899.94
2023-05-14T09:07:12.973Z,100907.59
2023-05-14T09:09:41.493Z,100908.94
2023-05-14T09:12:10.229Z,100909.81
2023-05-14T09:14:38.133Z,100901.63
2023-05-14T09:17:05.989Z,100898.41
2023-05-14T09:19:35.222Z,100899.59
2023-05-14T09:22:02.971Z,100901.06
2023-05-14T09:24:30.673Z,100907.13
2023-05-14T09:26:59.349Z,100893.63
2023-05-14T09:29:27.395Z,100896.97
2023-05-14T09:31:55.778Z,100894.38
2023-05-14T09:34:26.564Z,100893.03
2023-05-14T09:36:57.862Z,100887.81
2023-05-14T09:39:25.869Z,100886.28
2023-05-14T09:41:54.291Z,100885.59
2023-05-14T09:44:21.951Z,100888.94
2023-05-14T09:46:50.490Z,100874.50
2023-05-14T09:49:19.162Z,100884.03
2023-05-14T09:51:46.711Z,100886.13
2023-05-14T09:54:15.965Z,100882.91
2023-05-14T09:59:29.733Z,100878.72
2023-05-14T10:01:58.838Z,100878.34
2023-05-14T10:04:26.769Z,100883.53
2023-05-14T10:06:54.731Z,100875.84
2023-05-14T10:09:29.092Z,100876.56
2023-05-14T10:12:00.047Z,100873.72
2023-05-14T10:14:30.560Z,100868.78
2023-05-14T10:17:00.513Z,100864.28
2023-05-14T10:19:29.191Z,100857.59
2023-05-14T10:21:58.464Z,100856.09
2023-05-14T10:24:28.447Z,100858.19
2023-05-14T10:26:56.971Z,100853.66
2023-05-14T10:29:33.013Z,100847.47
2023-05-14T10:32:05.090Z,100853.63
2023-05-14T10:34:34.678Z,100850.25
2023-05-14T10:37:03.034Z,100846.19
2023-05-14T10:39:47.476Z,100848.19
2023-05-14T10:42:18.010Z,100853.66
2023-05-14T10:44:50.861Z,100845.44
2023-05-14T10:47:18.867Z,100847.50
2023-05-14T10:49:48.998Z,100845.28
2023-05-14T10:52:18.744Z,100845.75
2023-05-14T10:54:55.925Z,100849.06
2023-05-14T10:57:26.341Z,100835.75
2023-05-14T10:59:56.786Z,100832.75
2023-05-14T11:02:26.356Z,100826.91
2023-05-14T11:04:59.704Z,100826.44
2023-05-14T11:07:32.282Z,100821.41
2023-05-14T11:10:05.912Z,100822.31
2023-05-14T11:12:34.332Z,100822.09
2023-05-14T11:15:03.857Z,100812.44
2023-05-14T11:17:32.484Z,100806.97
2023-05-14T11:20:00.996Z,100810.16
2023-05-14T11:22:28.928Z,100803.03
2023-05-14T11:24:56.738Z,100815.16
2023-05-14T11:27:26.361Z,100818.88
2023-05-14T11:29:55.848Z,100796.03
2023-05-14T11:32:23.745Z,100798.31
2023-05-14T11:34:51.654Z,100799.44
2023-05-14T11:37:19.414Z,100795.50
2023-05-14T11:39:52.555Z,100784.41
2023-05-14T11:42:21.447Z,100774.09
2023-05-14T11:44:51.985Z,100782.09
2023-05-14T11:47:20.941Z,100785.22
2023-05-14T11:49:49.103Z,100781.06
2023-05-14T11:52:19.433Z,100792.69
2023-05-14T11:54:47.492Z,100785.19
2023-05-14T11:57:17.393Z,100783.28
2023-05-14T11:59:45.268Z,100783.03
2023-05-14T12:02:15.682Z,100790.63
2023-05-14T12:04:44.083Z,100769.38
2023-05-14T12:07:13.466Z,100779.59
2023-05-14T12:09:45.264Z,100766.00
2023-05-14T12:12:13.703Z,100773.59
2023-05-14T12:14:42.790Z,100769.81
2023-05-14T12:17:16.555Z,100769.75
2023-05-14T12:19:45.137Z,100767.72
2023-05-14T12:22:13.524Z,100758.06
2023-05-14T12:24:41.243Z,100757.91
2023-05-14T12:27:10.364Z,100762.09
2023-05-14T12:29:39.260Z,100758.97
2023-05-14T12:32:10.942Z,100749.78
2023-05-14T12:34:40.174Z,100748.59
2023-05-14T12:37:08.069Z,100747.28
2023-05-14T12:39:35.878Z,100742.94
2023-05-14T12:42:03.733Z,100748.91
2023-05-14T12:44:31.548Z,100736.09
2023-05-14T12:46:59.492Z,100732.28
2023-05-14T12:49:27.297Z,100731.09
2023-05-14T12:52:07.686Z,100740.69
2023-05-14T12:54:44.169Z,100742.56
2023-05-14T12:57:11.980Z,100734.88
2023-05-14T12:59:39.890Z,100739.81
2023-05-14T13:02:08.613Z,100732.97
2023-05-14T13:04:37.293Z,100721.19
2023-05-14T13:07:08.815Z,100716.47
2023-05-14T13:09:36.609Z,100716.72
2023-05-14T13:12:04.700Z,100710.34
2023-05-14T13:14:32.487Z,100719.84
2023-05-14T13:17:00.444Z,100715.00
2023-05-14T13:19:28.412Z,100709.41
2023-05-14T13:21:56.198Z,100708.88
2023-05-14T13:24:25.677Z,100707.25
2023-05-14T13:26:53.450Z,100702.50
2023-05-14T13:29:22.881Z,100704.78
2023-05-14T13:31:50.651Z,100700.44
2023-05-14T13:34:19.025Z,100709.28
2023-05-14T13:36:49.243Z,100698.44
2023-05-14T13:39:17.270Z,100696.31
2023-05-14T13:41:46.509Z,100698.56
2023-05-14T13:44:14.340Z,100696.63
2023-05-14T13:46:42.095Z,100696.78
2023-05-14T13:49:09.981Z,100697.78
2023-05-14T13:51:37.753Z,100689.06
2023-05-14T13:54:05.647Z,100699.44
2023-05-14T13:56:33.548Z,100690.78
2023-05-14T13:59:03.462Z,100685.13
2023-05-14T14:01:31.819Z,100691.69
2023-05-14T14:03:59.890Z,100680.06
2023-05-14T14:06:28.254Z,100674.28
2023-05-14T14:08:56.114Z,100674.22
2023-05-14T14:11:23.980Z,100670.47
2023-05-14T14:13:51.902Z,100665.31
2023-05-14T14:16:21.082Z,100667.09
2023-05-14T14:18:49.091Z,100666.44
2023-05-14T14:21:18.172Z,100667.38
2023-05-14T14:23:47.319Z,100670.91
2023-05-14T14:26:15.189Z,100671.78
2023-05-14T14:28:43.017Z,100675.31
2023-05-14T14:31:11.788Z,100671.38
2023-05-14T14:33:41.081Z,100664.31
2023-05-14T14:36:09.134Z,100670.56
2023-05-14T14:38:36.975Z,100662.47
2023-05-14T14:41:07.052Z,100662.88
2023-05-14T14:43:35.462Z,100661.13
2023-05-14T14:46:04.080Z,100663.00
2023-05-14T14:48:34.053Z,100658.38
2023-05-14T14:51:03.286Z,100657.78
2023-05-14T14:53:31.517Z,100655.53
2023-05-14T14:56:00.492Z,100653.63
2023-05-14T14:58:28.831Z,100659.38
2023-05-14T15:00:58.088Z,100643.22
2023-05-14T15:03:26.428Z,100651.63
2023-05-14T15:05:54.430Z,100649.41
2023-05-14T15:08:27.014Z,100648.34
2023-05-14T15:10:55.094Z,100647.91
2023-05-14T15:13:23.248Z,100646.81
2023-05-14T15:15:52.107Z,100637.25
2023-05-14T15:18:19.951Z,100642.59
2023-05-14T15:20:47.781Z,100642.59
2023-05-14T15:23:15.652Z,100634.34
2023-05-14T15:25:45.103Z,100643.81
2023-05-14T15:28:12.893Z,100635.63
2023-05-14T15:30:40.757Z,100634.41
2023-05-14T15:33:09.022Z,100627.00
2023-05-14T15:35:36.869Z,100631.75
2023-05-14T15:38:04.772Z,100624.78
2023-05-14T15:40:34.941Z,100625.63
2023-05-14T15:43:04.297Z,100625.31
2023-05-14T15:45:32.012Z,100624.16
2023-05-14T15:47:59.937Z,100621.50
2023-05-14T15:50:27.824Z,100627.97
2023-05-14T15:52:55.640Z,100616.13
2023-05-14T15:55:23.385Z,100614.47
2023-05-14T15:57:51.215Z,100617.50
2023-05-14T16:00:21.452Z,100625.53
2023-05-14T16:02:49.431Z,100627.47
2023-05-14T16:05:17.271Z,100621.41
2023-05-14T16:07:45.096Z,100621.75
2023-05-14T16:10:12.899Z,100628.63
2023-05-14T16:12:41.026Z,100621.63
2023-05-14T16:15:11.664Z,100628.81
2023-05-14T16:17:40.918Z,100628.81
2023-05-14T16:20:09.700Z,100628.31
2023-05-14T16:22:37.298Z,100623.91
2023-05-14T16:25:08.329Z,100623.03
2023-05-14T16:27:36.517Z,100614.41
2023-05-14T16:30:04.898Z,100623.63
2023-05-14T16:32:32.730Z,100621.53
2023-05-14T16:35:02.780Z,100624.66
2023-05-14T16:37:30.600Z,100621.84
2023-05-14T16:39:58.675Z,100620.00
2023-05-14T16:42:26.768Z,100613.59
2023-05-14T16:44:57.586Z,100623.03
2023-05-14T16:47:25.402Z,100615.78
2023-05-14T16:49:53.297Z,100624.03
2023-05-14T16:52:22.600Z,100626.38
2023-05-14T16:54:50.433Z,100622.06
2023-05-14T16:57:18.312Z,100618.03
2023-05-14T16:59:46.393Z,100623.63
2023-05-14T17:02:14.312Z,100625.47
2023-05-14T17:04:42.387Z,100621.69
2023-05-14T17:07:10.328Z,100621.44
2023-05-14T17:09:39.499Z,100613.13
2023-05-14T17:12:08.212Z,100608.41
2023-05-14T17:14:35.820Z,100619.31
2023-05-14T17:17:03.722Z,100624.50
2023-05-14T17:19:31.502Z,100625.53
2023-05-14T17:21:59.278Z,100623.06
2023-05-14T17:24:27.062Z,100621.97
2023-05-14T17:26:56.192Z,100622.66
2023-05-14T17:29:25.182Z,100618.09
2023-05-14T17:31:53.062Z,100621.59
2023-05-14T17:34:21.142Z,100626.75
2023-05-14T17:36:49.043Z,100625.34
2023-05-14T17:39:17.107Z,100623.97
2023-05-14T17:41:44.877Z,100631.75
2023-05-14T17:44:14.133Z,100628.16
2023-05-14T17:46:42.558Z,100632.34
2023-05-14T17:49:11.844Z,100630.38
2023-05-14T17:51:39.671Z,100630.34
2023-05-14T17:54:07.486Z,100637.00
2023-05-14T17:56:35.298Z,100637.56
2023-05-14T17:59:03.780Z,100634.50
2023-05-14T18:01:33.029Z,100638.38
2023-05-14T18:04:01.136Z,100637.53
2023-05-14T18:06:29.115Z,100643.63
2023-05-14T18:08:56.990Z,100634.44
2023-05-14T18:11:24.837Z,100638.44
2023-05-14T18:13:52.587Z,100644.16
2023-05-14T18:16:20.499Z,100639.94
2023-05-14T18:18:49.658Z,100645.06
2023-05-14T18:21:17.642Z,100646.41
2023-05-14T18:23:45.642Z,100638.47
2023-05-14T18:26:13.561Z,100640.06
2023-05-14T18:28:41.520Z,100647.69
2023-05-14T18:31:12.039Z,100650.00
2023-05-14T18:33:39.996Z,100648.03
2023-05-14T18:36:09.251Z,100647.03
2023-05-14T18:38:38.716Z,100650.28
2023-05-14T18:41:06.534Z,100646.75
2023-05-14T18:43:34.321Z,100652.53
2023-05-14T18:46:02.182Z,100648.84
2023-05-14T18:48:30.058Z,100652.13
2023-05-14T18:50:58.070Z,100656.25
2023-05-14T18:53:27.346Z,100653.41
2023-05-14T18:55:55.202Z,100662.78
2023-05-14T18:58:22.993Z,100658.25
2023-05-14T19:00:50.956Z,100661.63
2023-05-14T19:03:19.825Z,100667.41
2023-05-14T19:05:47.614Z,100663.81
2023-05-14T19:08:15.619Z,100660.72
2023-05-14T19:10:44.928Z,100655.13
2023-05-14T19:13:12.877Z,100660.78
2023-05-14T19:15:40.698Z,100659.41
2023-05-14T19:18:08.690Z,100664.34
2023-05-14T19:20:36.541Z,100660.28
2023-05-14T19:23:04.557Z,100659.81
2023-05-14T19:25:32.610Z,100667.22
2023-05-14T19:28:03.718Z,100663.25
2023-05-14T19:30:31.615Z,100667.22
2023-05-14T19:32:59.677Z,100667.00
2023-05-14T19:35:27.578Z,100660.75
2023-05-14T19:37:55.466Z,100667.81
2023-05-14T19:40:23.344Z,100669.63
2023-05-14T19:42:51.215Z,100671.56
2023-05-14T19:45:20.350Z,100676.34
2023-05-14T19:47:52.767Z,100681.16
2023-05-14T19:50:20.715Z,100680.50
2023-05-14T19:52:48.637Z,100680.81
2023-05-14T19:55:16.628Z,100681.69
2023-05-14T19:57:44.489Z,100676.97
2023-05-14T20:00:13.361Z,100684.78
2023-05-14T20:02:43.263Z,100678.56
2023-05-14T20:05:11.554Z,100681.06
2023-05-14T20:07:40.469Z,100680.34
2023-05-14T20:10:08.819Z,100688.97
2023-05-14T20:12:36.606Z,100683.72
2023-05-14T20:15:04.686Z,100682.25
2023-05-14T20:17:32.563Z,100690.56
2023-05-14T20:20:02.233Z,100679.47
2023-05-14T20:22:30.004Z,100690.78
2023-05-14T20:24:57.757Z,100679.56
2023-05-14T20:27:25.612Z,100679.69
2023-05-14T20:29:54.210Z,100683.13
2023-05-14T20:32:24.858Z,100677.16
2023-05-14T20:34:52.902Z,100668.53
2023-05-14T20:37:22.046Z,100667.72
2023-05-14T20:39:52.678Z,100668.44
2023-05-14T20:42:20.488Z,100670.94
2023-05-14T20:44:48.741Z,100675.25
2023-05-14T20:47:20.218Z,100676.00
2023-05-14T20:49:48.050Z,100664.75
2023-05-14T20:52:15.895Z,100674.66
2023-05-14T20:54:45.265Z,100670.66
2023-05-14T20:57:15.331Z,100675.31
2023-05-14T20:59:44.316Z,100676.47
2023-05-14T21:02:12.192Z,100673.09
2023-05-14T21:04:40.157Z,100660.19
2023-05-14T21:07:08.252Z,100655.16
2023-05-14T21:09:36.103Z,100662.44
2023-05-14T21:12:05.743Z,100662.88
2023-05-14T21:14:33.500Z,100652.59
2023-05-14T21:17:01.275Z,100658.78
2023-05-14T21:19:29.078Z,100656.38
2023-05-14T21:21:56.907Z,100664.25
2023-05-14T21:24:24.688Z,100657.53
2023-05-14T21:26:53.682Z,100656.28
2023-05-14T21:29:22.687Z,100653.75
2023-05-14T21:31:50.477Z,100654.06
2023-05-14T21:34:18.213Z,100654.56
2023-05-14T21:36:45.946Z,100653.09
2023-05-14T21:39:13.753Z,100653.31
2023-05-14T21:41:41.555Z,100651.63
2023-05-14T21:44:12.205Z,100656.88
2023-05-14T21:46:41.331Z,100658.56
2023-05-14T21:49:08.901Z,100650.81
2023-05-14T21:51:36.681Z,100658.13
2023-05-14T21:54:04.506Z,100649.13
2023-05-14T21:56:32.248Z,100647.16
2023-05-14T21:59:00.119Z,100642.66
2023-05-14T22:01:27.891Z,100645.28
2023-05-14T22:03:57.983Z,100643.47
2023-05-14T22:06:26.186Z,100646.19
2023-05-14T22:08:53.957Z,100649.97
2023-05-14T22:11:21.874Z,100658.03
2023-05-14T22:13:49.679Z,100647.84
2023-05-14T22:16:17.468Z,100655.84
2023-05-14T22:18:48.109Z,100653.50
2023-05-14T22:21:17.214Z,100645.91
2023-05-14T22:23:45.350Z,100650.81
2023-05-14T22:26:13.097Z,100649.13
2023-05-14T22:28:42.962Z,100649.13
2023-05-14T22:31:10.932Z,100647.47
2023-05-14T22:33:38.708Z,100654.59
2023-05-14T22:36:07.480Z,100648.81
2023-05-14T22:38:36.556Z,100648.28
2023-05-14T22:41:04.159Z,100655.16
2023-05-14T22:43:31.883Z,100645.94
2023-05-14T22:46:02.025Z,100641.84
2023-05-14T22:48:29.831Z,100642.78
2023-05-14T22:50:57.600Z,100642.91
2023-05-14T22:53:25.551Z,100637.13
2023-05-14T22:55:54.737Z,100633.31
2023-05-14T22:58:22.419Z,100625.13
2023-05-14T23:00:50.164Z,100618.66
2023-05-14T23:03:17.834Z,100626.88
2023-05-14T23:05:45.624Z,100619.41
2023-05-14T23:08:13.381Z,100617.06
2023-05-14T23:10:46.110Z,100616.84
2023-05-14T23:13:15.315Z,100619.69
2023-05-14T23:15:44.063Z,100623.00
2023-05-14T23:18:11.910Z,100625.06
2023-05-14T23:20:39.728Z,100620.84
2023-05-14T23:23:07.574Z,100621.03
2023-05-14T23:25:35.333Z,100611.81
2023-05-14T23:28:03.137Z,100613.06
2023-05-14T23:30:32.269Z,100614.25
2023-05-14T23:32:59.821Z,100613.06
2023-05-14T23:35:27.638Z,100616.69
2023-05-14T23:37:55.443Z,100614.38
2023-05-14T23:40:23.283Z,100612.78
2023-05-14T23:42:51.034Z,100608.41
2023-05-14T23:45:18.866Z,100607.47
2023-05-14T23:47:48.185Z,100607.56
2023-05-14T23:50:15.914Z,100611.03
2023-05-14T23:52:43.654Z,100602.31
2023-05-14T23:55:11.438Z,100590.13
2023-05-14T23:57:39.238Z,100592.72
